Cuba, MO

9:55 AM CDT on September 19, 2014 (GMT -0500)
Jefferson City Memorial | Change Station
CLOSE
Current Station
Airport
Location: Jefferson City,
Elevation: 548 ft
Nearby Weather Stations

Elev 548 ft 38.59 °N, 92.16 °W | Updated 1 hour ago

Clear
Clear
60 °F
Feels Like 60 °F
N
4
Wind Variable Wind from SE

Today
High -- | Low -- °F
--% Chance of Precip.
Yesterday
High -- | Low -- °F
Precip. -- in
6:50 AM 7:07 PM
Waning Crescent, 19% visible
Pressure 30.05 in
Visibility 7.0 miles
Clouds Clear
Dew Point 57 °F
Humidity 90%
Rainfall 0.00 in
Snow Depth Not available.
UV 2 out of 12
Pollen 6.70 out of 12
Air Quality Not available.
Flu Activity Not available.
METAR KJEF 191353Z 13003KT 7SM CLR 16/14 A3009 RMK AO2 SLP176 T01560139

More Conditions Fewer Conditions

Pressure 30.05 in
Visibility 7.0 miles
Clouds Clear
Dew Point 57 °F
Humidity 90%
Rainfall 0.00 in
Snow Depth Not available.
UV 2 out of 12
Pollen 6.70 out of 12
Air Quality Not available.
Flu Activity Not available.
METAR KJEF 191353Z 13003KT 7SM CLR 16/14 A3009 RMK AO2 SLP176 T01560139

More Conditions Fewer Conditions

10-Day Weather Forecast

Almanac

Astronomy

Sep. 19, 2014 Rise Set
Actual Time 6:50 AM CDT 7:07 PM CDT
Civil Twilight 6:24 AM CDT 7:33 PM CDT
Nautical Twilight 5:53 AM CDT 8:04 PM CDT
Astronomical Twilight 5:22 AM CDT 8:35 PM CDT
Moon 2:39 AM CDT 4:33 PM CDT
Length of Visible Light 13h 09m
Length of Day
12h 16m
Tomorrow will be 2m 26s shorter.
Waning Crescent, 19% of the Moon is Illuminated
Today
Waning Crescent
Sep 24
New
Oct 1
First Quarter
Oct 8
Full
Oct 15
Last Quarter

Today's Extremes

State Highs State Lows

Community

WunderPhotos

Upload Photos

1,754,630 photos uploaded!

WunderBlogs® & News

Nearby

Snow Depth

Station Depth Elevation
No new snow has been reported.

Earthquake Activity

City Distance Mag. Time & Date
No recent earthquake activity has been reported nearby.
Minimum magnitude displayed is 2.5.

Coastal Water Temperatures

Place Temperature
No Stations Reporting

Nearby Weather Stations